createdAt,value
2023-01-11T00:01:53.852Z,96132.78
2023-01-11T00:04:20.592Z,96129.56
2023-01-11T00:06:47.173Z,96132.31
2023-01-11T00:09:13.706Z,96135.09
2023-01-11T00:11:40.162Z,96134.28
2023-01-11T00:14:06.717Z,96128.50
2023-01-11T00:16:33.207Z,96121.00
2023-01-11T00:18:59.761Z,96118.88
2023-01-11T00:21:26.235Z,96113.81
2023-01-11T00:23:52.689Z,96116.25
2023-01-11T00:26:19.199Z,96111.28
2023-01-11T00:28:48.295Z,96129.00
2023-01-11T00:31:15.177Z,96116.66
2023-01-11T00:33:41.739Z,96123.16
2023-01-11T00:36:08.727Z,96121.59
2023-01-11T00:38:35.310Z,96132.69
2023-01-11T00:41:01.780Z,96127.34
2023-01-11T00:43:28.263Z,96126.56
2023-01-11T00:45:54.749Z,96112.69
2023-01-11T00:48:21.335Z,96110.31
2023-01-11T00:50:47.834Z,96110.00
2023-01-11T00:53:14.354Z,96111.63
2023-01-11T00:55:40.797Z,96109.66
2023-01-11T00:58:07.250Z,96104.69
2023-01-11T01:00:33.698Z,96102.50
2023-01-11T01:03:00.169Z,96107.03
2023-01-11T01:05:26.777Z,96098.94
2023-01-11T01:07:53.308Z,96102.66
2023-01-11T01:10:20.590Z,96105.56
2023-01-11T01:12:47.725Z,96108.75
2023-01-11T01:15:14.222Z,96095.63
2023-01-11T01:17:40.696Z,96103.78
2023-01-11T01:20:07.717Z,96110.31
2023-01-11T01:22:34.582Z,96100.66
2023-01-11T01:25:01.116Z,96100.00
2023-01-11T01:27:27.575Z,96088.78
2023-01-11T01:29:54.045Z,96087.13
2023-01-11T01:32:20.560Z,96080.91
2023-01-11T01:34:47.049Z,96077.25
2023-01-11T01:37:13.552Z,96078.47
2023-01-11T01:39:39.995Z,96075.63
2023-01-11T01:42:14.167Z,96064.75
2023-01-11T01:45:00.161Z,96072.91
2023-01-11T01:47:47.048Z,96078.72
2023-01-11T01:50:38.145Z,96064.56
2023-01-11T01:53:14.080Z,96065.81
2023-01-11T01:55:45.759Z,96066.22
2023-01-11T01:58:17.786Z,96069.69
2023-01-11T02:00:46.300Z,96079.81
2023-01-11T02:03:18.852Z,96074.06
2023-01-11T02:05:46.617Z,96083.78
2023-01-11T02:08:35.908Z,96080.16
2023-01-11T02:11:03.858Z,96080.13
2023-01-11T02:13:32.125Z,96092.56
2023-01-11T02:15:58.668Z,96093.41
2023-01-11T02:18:25.155Z,96097.00
2023-01-11T02:21:06.980Z,96086.88
2023-01-11T02:23:52.240Z,96081.50
2023-01-11T02:26:39.892Z,96080.13
2023-01-11T02:29:24.975Z,96079.59
2023-01-11T02:32:20.926Z,96068.50
2023-01-11T02:35:05.257Z,96059.13
2023-01-11T02:37:51.150Z,96073.69
2023-01-11T02:40:40.948Z,96063.88
2023-01-11T02:43:24.953Z,96050.31
2023-01-11T02:46:39.793Z,96055.28
2023-01-11T02:49:35.830Z,96036.25
2023-01-11T02:52:25.919Z,96025.63
2023-01-11T02:54:58.839Z,96018.53
2023-01-11T02:57:28.424Z,96030.78
2023-01-11T02:59:57.751Z,96013.53
2023-01-11T03:02:25.067Z,96012.88
2023-01-11T03:04:51.545Z,96006.56
2023-01-11T03:08:16.319Z,96001.81
2023-01-11T03:11:09.499Z,96000.72
2023-01-11T03:13:54.785Z,95999.06
2023-01-11T03:16:45.761Z,96001.56
2023-01-11T03:19:38.407Z,96002.34
2023-01-11T03:22:28.431Z,96000.69
2023-01-11T03:25:23.268Z,95995.22
2023-01-11T03:28:02.403Z,95997.38
2023-01-11T03:30:33.721Z,95999.59
2023-01-11T03:33:17.724Z,96002.06
2023-01-11T03:35:56.014Z,96000.41
2023-01-11T03:38:36.948Z,95996.56
2023-01-11T03:41:20.297Z,95995.47
2023-01-11T03:43:52.592Z,96007.53
2023-01-11T03:46:25.829Z,95995.81
2023-01-11T03:49:02.457Z,96001.06
2023-01-11T03:51:35.022Z,95996.38
2023-01-11T03:54:06.970Z,95990.84
2023-01-11T03:56:47.037Z,95983.13
2023-01-11T03:59:13.911Z,95978.44
2023-01-11T04:01:40.368Z,95973.75
2023-01-11T04:04:06.964Z,95962.72
2023-01-11T04:06:37.005Z,95955.56
2023-01-11T04:09:04.668Z,95944.81
2023-01-11T04:11:31.139Z,95945.00
2023-01-11T04:13:57.629Z,95940.28
2023-01-11T04:16:24.119Z,95950.63
2023-01-11T04:18:50.595Z,95945.97
2023-01-11T04:21:17.080Z,95949.22
2023-01-11T04:23:43.596Z,95954.44
2023-01-11T04:26:10.218Z,95947.88
2023-01-11T04:28:36.772Z,95946.88
2023-01-11T04:31:03.430Z,95951.19
2023-01-11T04:33:29.946Z,95952.16
2023-01-11T04:35:56.510Z,95952.84
2023-01-11T04:38:22.976Z,95953.75
2023-01-11T04:40:49.443Z,95943.41
2023-01-11T04:43:16.020Z,95939.56
2023-01-11T04:45:42.511Z,95940.13
2023-01-11T04:48:09.007Z,95942.63
2023-01-11T04:50:35.547Z,95940.66
2023-01-11T04:53:02.056Z,95955.00
2023-01-11T04:55:28.511Z,95955.56
2023-01-11T04:57:54.979Z,95953.63
2023-01-11T05:00:21.641Z,95956.06
2023-01-11T05:02:48.109Z,95947.53
2023-01-11T05:05:14.694Z,95949.69
2023-01-11T05:07:41.170Z,95935.34
2023-01-11T05:10:08.296Z,95944.25
2023-01-11T05:12:34.771Z,95942.72
2023-01-11T05:15:01.327Z,95948.22
2023-01-11T05:17:27.893Z,95948.66
2023-01-11T05:19:54.388Z,95957.00
2023-01-11T05:22:20.875Z,95958.25
2023-01-11T05:24:47.384Z,95955.19
2023-01-11T05:27:13.893Z,95946.53
2023-01-11T05:29:40.503Z,95949.53
2023-01-11T05:32:06.972Z,95946.19
2023-01-11T05:34:33.669Z,95943.81
2023-01-11T05:37:00.139Z,95941.75
2023-01-11T05:39:26.653Z,95939.09
2023-01-11T05:41:53.151Z,95935.19
2023-01-11T05:44:19.624Z,95934.09
2023-01-11T05:46:46.309Z,95929.38
2023-01-11T05:49:14.361Z,95927.97
2023-01-11T05:51:42.773Z,95929.00
2023-01-11T05:54:13.323Z,95932.75
2023-01-11T05:56:40.973Z,95939.22
2023-01-11T05:59:07.464Z,95932.31
2023-01-11T06:01:34.772Z,95921.53
2023-01-11T06:04:01.322Z,95918.00
2023-01-11T06:06:28.036Z,95919.69
2023-01-11T06:08:54.521Z,95935.44
2023-01-11T06:11:20.979Z,95929.91
2023-01-11T06:13:47.481Z,95936.59
2023-01-11T06:16:19.681Z,95926.59
2023-01-11T06:18:51.848Z,95929.91
2023-01-11T06:21:18.776Z,95932.13
2023-01-11T06:23:48.046Z,95929.47
2023-01-11T06:26:16.984Z,95929.84
2023-01-11T06:28:44.490Z,95925.41
2023-01-11T06:31:11.678Z,95933.53
2023-01-11T06:33:38.326Z,95933.50
2023-01-11T06:36:08.157Z,95933.00
2023-01-11T06:38:35.268Z,95927.56
2023-01-11T06:41:03.962Z,95936.22
2023-01-11T06:43:31.650Z,95934.69
2023-01-11T06:45:58.684Z,95941.16
2023-01-11T06:48:26.452Z,95940.19
2023-01-11T06:50:55.818Z,95934.81
2023-01-11T06:53:27.446Z,95943.16
2023-01-11T06:55:57.394Z,95935.56
2023-01-11T06:58:25.786Z,95931.75
2023-01-11T07:00:54.821Z,95934.13
2023-01-11T07:03:21.616Z,95933.75
2023-01-11T07:05:48.192Z,95937.16
2023-01-11T07:08:15.066Z,95952.31
2023-01-11T07:10:41.890Z,95947.38
2023-01-11T07:13:08.451Z,95946.09
2023-01-11T07:15:34.985Z,95944.44
2023-01-11T07:18:01.575Z,95941.94
2023-01-11T07:20:28.403Z,95937.91
2023-01-11T07:23:00.042Z,95932.66
2023-01-11T07:25:29.894Z,95924.38
2023-01-11T07:28:02.494Z,95934.06
2023-01-11T07:30:31.610Z,95940.06
2023-01-11T07:32:59.474Z,95933.59
2023-01-11T07:35:28.889Z,95933.44
2023-01-11T07:37:55.881Z,95932.56
2023-01-11T07:40:22.448Z,95939.16
2023-01-11T07:42:54.174Z,95939.16
2023-01-11T07:45:20.795Z,95940.50
2023-01-11T07:47:50.327Z,95938.84
2023-01-11T07:50:16.856Z,95940.91
2023-01-11T07:52:47.561Z,95943.41
2023-01-11T07:55:14.632Z,95932.84
2023-01-11T07:57:41.083Z,95933.59
2023-01-11T08:00:08.537Z,95934.44
2023-01-11T08:02:35.126Z,95927.41
2023-01-11T08:05:03.183Z,95923.75
2023-01-11T08:07:29.897Z,95925.53
2023-01-11T08:09:56.334Z,95924.34
2023-01-11T08:12:22.828Z,95933.16
2023-01-11T08:14:49.287Z,95927.69
2023-01-11T08:17:16.796Z,95920.34
2023-01-11T08:19:43.611Z,95915.06
2023-01-11T08:22:10.472Z,95935.44
2023-01-11T08:24:37.030Z,95950.88
2023-01-11T08:27:03.954Z,95957.81
2023-01-11T08:29:30.944Z,95951.06
2023-01-11T08:31:57.515Z,95963.97
2023-01-11T08:34:24.051Z,95954.56
2023-01-11T08:36:50.545Z,95950.06
2023-01-11T08:39:17.035Z,95955.56
2023-01-11T08:41:44.402Z,95948.72
2023-01-11T08:44:11.840Z,95952.50
2023-01-11T08:46:38.719Z,95947.25
2023-01-11T08:49:05.709Z,95946.75
2023-01-11T08:51:32.635Z,95949.88
2023-01-11T08:53:59.224Z,95952.22
2023-01-11T08:56:25.861Z,95957.16
2023-01-11T08:58:52.346Z,95955.66
2023-01-11T09:01:18.922Z,95952.50
2023-01-11T09:03:45.378Z,95955.97
2023-01-11T09:06:11.907Z,95952.28
2023-01-11T09:08:38.474Z,95945.09
2023-01-11T09:11:05.134Z,95947.09
2023-01-11T09:13:31.719Z,95937.25
2023-01-11T09:15:58.532Z,95933.88
2023-01-11T09:18:25.072Z,95937.44
2023-01-11T09:20:51.582Z,95938.53
2023-01-11T09:23:18.149Z,95948.72
2023-01-11T09:25:44.683Z,95949.41
2023-01-11T09:28:11.245Z,95960.44
2023-01-11T09:30:37.745Z,95966.31
2023-01-11T09:33:04.230Z,95967.78
2023-01-11T09:35:30.728Z,95976.56
2023-01-11T09:37:57.254Z,95963.25
2023-01-11T09:40:51.557Z,95954.09
2023-01-11T09:43:24.713Z,95953.47
2023-01-11T09:45:52.135Z,95962.34
2023-01-11T09:48:27.304Z,95965.88
2023-01-11T09:50:54.998Z,95967.91
2023-01-11T09:53:26.606Z,95967.91
2023-01-11T09:55:55.308Z,95957.50
2023-01-11T09:58:50.897Z,95953.22
2023-01-11T10:01:31.687Z,95967.84
2023-01-11T10:04:16.995Z,95968.50
2023-01-11T10:07:11.559Z,95958.63
2023-01-11T10:18:29.331Z,95960.63
2023-01-11T10:19:40.845Z,95970.16
2023-01-11T10:22:21.846Z,95941.06
2023-01-11T10:25:11.387Z,95949.34
2023-01-11T10:27:40.818Z,95941.41
2023-01-11T10:30:31.628Z,95938.53
2023-01-11T10:33:05.778Z,95947.19
2023-01-11T10:35:43.666Z,95941.31
2023-01-11T10:38:31.258Z,95940.69
2023-01-11T10:41:06.389Z,95933.47
2023-01-11T10:43:41.235Z,95937.44
2023-01-11T10:46:15.373Z,95926.56
2023-01-11T10:48:44.150Z,95931.72
2023-01-11T10:51:28.627Z,95929.34
2023-01-11T10:54:09.152Z,95931.88
2023-01-11T10:57:02.701Z,95928.94
2023-01-11T10:59:56.117Z,95920.06
2023-01-11T11:02:55.160Z,95927.81
2023-01-11T11:05:33.783Z,95933.75
2023-01-11T11:08:26.345Z,95935.53
2023-01-11T11:11:05.913Z,95930.72
2023-01-11T11:13:58.582Z,95926.00
2023-01-11T11:16:43.998Z,95924.75
2023-01-11T11:19:17.033Z,95923.59
2023-01-11T11:21:43.885Z,95910.06
2023-01-11T11:24:24.180Z,95932.22
2023-01-11T11:27:02.832Z,95925.94
2023-01-11T11:29:29.345Z,95923.84
2023-01-11T11:31:59.729Z,95919.78
2023-01-11T11:34:28.147Z,95927.25
2023-01-11T11:36:59.233Z,95925.94
2023-01-11T11:39:30.221Z,95938.03
2023-01-11T11:42:05.747Z,95929.69
2023-01-11T11:44:32.445Z,95940.22
2023-01-11T11:47:04.962Z,95935.16
2023-01-11T11:49:33.659Z,95938.91
2023-01-11T11:52:03.846Z,95941.38
2023-01-11T11:54:41.905Z,95938.56
2023-01-11T11:57:27.315Z,95934.38
2023-01-11T12:00:03.747Z,95938.06
2023-01-11T12:02:33.916Z,95932.09
2023-01-11T12:05:08.748Z,95928.09
2023-01-11T12:07:54.920Z,95917.31
2023-01-11T12:10:27.697Z,95920.72
2023-01-11T12:13:00.318Z,95931.63
2023-01-11T12:15:31.732Z,95931.28
2023-01-11T12:18:22.994Z,95931.19
2023-01-11T12:20:49.658Z,95930.88
2023-01-11T12:23:18.021Z,95932.16
2023-01-11T12:26:00.674Z,95919.34
2023-01-11T12:29:00.932Z,95921.16
2023-01-11T12:32:10.063Z,95923.31
2023-01-11T12:34:53.999Z,95918.28
2023-01-11T12:37:56.479Z,95921.78
2023-01-11T12:40:32.840Z,95920.00
2023-01-11T12:43:17.853Z,95932.31
2023-01-11T12:46:02.775Z,95925.41
2023-01-11T12:48:50.784Z,95919.84
2023-01-11T12:51:35.799Z,95927.88
2023-01-11T12:54:33.039Z,95932.09
2023-01-11T12:57:52.418Z,95938.31
2023-01-11T13:00:34.504Z,95935.09
2023-01-11T13:03:15.622Z,95931.78
2023-01-11T13:06:11.585Z,95921.66
2023-01-11T13:08:38.024Z,95923.31
2023-01-11T13:11:10.335Z,95932.38
2023-01-11T13:13:57.499Z,95936.75
2023-01-11T13:16:33.552Z,95932.09
2023-01-11T13:19:10.665Z,95940.78
2023-01-11T13:21:48.671Z,95932.63
2023-01-11T13:24:23.391Z,95928.00
2023-01-11T13:26:51.506Z,95929.38
2023-01-11T13:29:39.750Z,95940.91
2023-01-11T13:32:23.683Z,95944.72
2023-01-11T13:34:57.193Z,95942.44
2023-01-11T13:37:32.811Z,95948.75
2023-01-11T13:40:16.191Z,95945.75
2023-01-11T13:42:50.490Z,95952.59
2023-01-11T13:45:16.917Z,95957.69
2023-01-11T13:48:13.089Z,95957.59
2023-01-11T13:51:14.054Z,95955.47
2023-01-11T13:54:11.745Z,95954.97
2023-01-11T13:56:42.763Z,95953.53
2023-01-11T13:59:34.382Z,95952.56
2023-01-11T14:02:08.890Z,95943.88
2023-01-11T14:05:15.112Z,95944.47
2023-01-11T14:08:24.379Z,95954.88
2023-01-11T14:11:05.919Z,95962.94
2023-01-11T14:14:13.867Z,95969.25
2023-01-11T14:16:49.276Z,95968.41
2023-01-11T14:19:41.834Z,95965.88
2023-01-11T14:22:29.020Z,95974.94
2023-01-11T14:25:08.524Z,95981.63
2023-01-11T14:27:58.878Z,95990.78
2023-01-11T14:31:13.170Z,95991.53
2023-01-11T14:34:03.467Z,95999.25
2023-01-11T14:37:07.466Z,96002.31
2023-01-11T14:40:00.240Z,96006.03
2023-01-11T14:42:33.468Z,96015.97
2023-01-11T14:45:14.759Z,96018.09
2023-01-11T14:48:10.362Z,96033.25
2023-01-11T14:50:58.415Z,96037.38
2023-01-11T14:53:36.440Z,96041.72
2023-01-11T14:56:02.973Z,96051.03
2023-01-11T14:58:31.978Z,96052.44
2023-01-11T15:00:58.407Z,96061.47
2023-01-11T15:03:39.561Z,96062.44
2023-01-11T15:06:13.484Z,96069.56
2023-01-11T15:08:49.728Z,96066.25
2023-01-11T15:11:36.312Z,96074.34
2023-01-11T15:14:27.062Z,96076.19
2023-01-11T15:16:59.843Z,96087.84
2023-01-11T15:19:34.049Z,96100.31
2023-01-11T15:22:04.333Z,96107.19
2023-01-11T15:24:35.434Z,96100.72
2023-01-11T15:27:02.829Z,96111.78
2023-01-11T15:29:41.235Z,96115.38
2023-01-11T15:32:16.885Z,96125.19
2023-01-11T15:34:47.826Z,96127.13
2023-01-11T15:37:28.512Z,96130.28
2023-01-11T15:40:01.455Z,96129.75
2023-01-11T15:42:59.949Z,96109.16
2023-01-11T15:45:51.205Z,96114.88
2023-01-11T15:48:41.759Z,96117.09
2023-01-11T15:51:23.431Z,96114.53
2023-01-11T15:54:00.884Z,96127.22
2023-01-11T15:56:49.162Z,96127.22
2023-01-11T15:59:37.159Z,96128.97
2023-01-11T16:02:12.598Z,96130.47
2023-01-11T16:04:55.330Z,96135.66
2023-01-11T16:07:43.642Z,96133.72
2023-01-11T16:10:31.117Z,96139.66
2023-01-11T16:13:15.998Z,96137.03
2023-01-11T16:16:01.808Z,96144.13
2023-01-11T16:18:38.935Z,96147.84
2023-01-11T16:21:14.196Z,96144.63
2023-01-11T16:23:41.088Z,96143.06
2023-01-11T16:26:08.545Z,96159.63
2023-01-11T16:28:35.278Z,96161.09
2023-01-11T16:31:04.717Z,96167.72
2023-01-11T16:33:33.536Z,96176.00
2023-01-11T16:36:07.794Z,96171.56
2023-01-11T16:38:42.337Z,96156.50
2023-01-11T16:41:13.893Z,96158.84
2023-01-11T16:43:49.332Z,96165.66
2023-01-11T16:46:57.172Z,96172.72
2023-01-11T16:49:23.801Z,96175.63
2023-01-11T16:51:50.250Z,96186.44
2023-01-11T16:54:25.175Z,96196.47
2023-01-11T16:56:53.233Z,96196.19
2023-01-11T16:59:26.384Z,96185.13
2023-01-11T17:01:57.030Z,96199.50
2023-01-11T17:04:35.717Z,96197.84
2023-01-11T17:07:20.346Z,96205.47
2023-01-11T17:09:46.836Z,96204.06
2023-01-11T17:12:21.108Z,96204.19
2023-01-11T17:14:58.076Z,96188.06
2023-01-11T17:17:25.625Z,96194.63
2023-01-11T17:19:53.245Z,96199.59
2023-01-11T17:22:21.435Z,96210.38
2023-01-11T17:24:52.821Z,96216.50
2023-01-11T17:27:25.555Z,96216.38
2023-01-11T17:29:55.786Z,96218.41
2023-01-11T17:32:42.512Z,96214.84
2023-01-11T17:35:24.679Z,96218.94
2023-01-11T17:37:55.364Z,96221.00
2023-01-11T17:40:38.578Z,96229.44
2023-01-11T17:43:15.108Z,96239.63
2023-01-11T17:45:45.021Z,96231.09
2023-01-11T17:48:14.291Z,96244.03
2023-01-11T17:50:48.446Z,96255.53
2023-01-11T17:53:21.658Z,96260.09
2023-01-11T17:55:51.186Z,96255.63
2023-01-11T17:58:19.929Z,96248.72
2023-01-11T18:01:04.995Z,96241.00
2023-01-11T18:03:54.179Z,96238.84
2023-01-11T18:06:36.731Z,96245.03
2023-01-11T18:09:07.082Z,96249.56
2023-01-11T18:11:40.634Z,96243.91
2023-01-11T18:14:28.026Z,96243.13
2023-01-11T18:17:05.812Z,96241.72
2023-01-11T18:19:40.910Z,96250.72
2023-01-11T18:22:36.401Z,96253.66
2023-01-11T18:25:24.826Z,96260.06
2023-01-11T18:27:51.897Z,96271.50
2023-01-11T18:30:30.715Z,96270.81
2023-01-11T18:32:59.184Z,96263.75
2023-01-11T18:35:25.956Z,96273.28
2023-01-11T18:37:52.441Z,96266.09
2023-01-11T18:40:19.485Z,96273.97
2023-01-11T18:42:50.174Z,96277.41
2023-01-11T18:45:17.283Z,96281.47
2023-01-11T18:47:44.319Z,96287.06
2023-01-11T18:50:13.460Z,96296.34
2023-01-11T18:52:40.048Z,96294.38
2023-01-11T18:55:10.675Z,96282.50
2023-01-11T18:57:37.176Z,96282.06
2023-01-11T19:00:03.972Z,96293.25
2023-01-11T19:02:42.537Z,96302.63
2023-01-11T19:05:15.188Z,96322.53
2023-01-11T19:07:41.678Z,96308.47
2023-01-11T19:10:08.702Z,96309.09
2023-01-11T19:12:35.207Z,96308.28
2023-01-11T19:15:01.757Z,96311.47
2023-01-11T19:17:28.571Z,96317.56
2023-01-11T19:19:55.063Z,96314.81
2023-01-11T19:22:24.527Z,96318.13
2023-01-11T19:24:53.357Z,96327.81
2023-01-11T19:27:19.801Z,96330.84
2023-01-11T19:29:46.508Z,96328.06
2023-01-11T19:32:13.008Z,96327.78
2023-01-11T19:34:39.465Z,96326.13
2023-01-11T19:37:05.977Z,96320.88
2023-01-11T19:39:32.592Z,96315.91
2023-01-11T19:41:59.121Z,96306.50
2023-01-11T19:44:29.704Z,96304.59
2023-01-11T19:47:10.402Z,96305.41
2023-01-11T19:49:39.256Z,96308.28
2023-01-11T19:52:05.910Z,96305.94
2023-01-11T19:54:32.406Z,96314.19
2023-01-11T19:56:58.896Z,96313.56
2023-01-11T19:59:25.466Z,96316.75
2023-01-11T20:01:52.017Z,96315.91
2023-01-11T20:04:18.560Z,96323.09
2023-01-11T20:06:45.445Z,96320.91
2023-01-11T20:09:12.101Z,96332.38
2023-01-11T20:11:38.574Z,96328.19
2023-01-11T20:14:05.870Z,96334.28
2023-01-11T20:16:32.360Z,96327.81
2023-01-11T20:18:58.950Z,96339.53
2023-01-11T20:21:28.405Z,96338.00
2023-01-11T20:23:55.715Z,96331.41
2023-01-11T20:26:22.180Z,96322.25
2023-01-11T20:28:54.904Z,96336.06
2023-01-11T20:31:22.625Z,96342.69
2023-01-11T20:33:49.122Z,96339.13
2023-01-11T20:36:17.711Z,96340.78
2023-01-11T20:38:45.920Z,96343.91
2023-01-11T20:41:17.500Z,96352.59
2023-01-11T20:43:44.001Z,96355.94
2023-01-11T20:46:10.497Z,96358.97
2023-01-11T20:48:37.004Z,96363.31
2023-01-11T20:51:03.648Z,96351.28
2023-01-11T20:53:30.136Z,96356.69
2023-01-11T20:55:56.612Z,96353.66
2023-01-11T20:58:23.102Z,96352.94
2023-01-11T21:00:49.557Z,96350.31
2023-01-11T21:03:16.081Z,96358.19
2023-01-11T21:05:42.551Z,96360.66
2023-01-11T21:08:09.062Z,96361.63
2023-01-11T21:10:35.638Z,96354.59
2023-01-11T21:13:02.116Z,96366.50
2023-01-11T21:15:28.606Z,96370.09
2023-01-11T21:17:55.081Z,96376.41
2023-01-11T21:20:21.572Z,96370.34
2023-01-11T21:22:48.047Z,96379.44
2023-01-11T21:25:14.589Z,96377.53
2023-01-11T21:27:41.089Z,96375.19
2023-01-11T21:30:08.235Z,96381.53
2023-01-11T21:32:34.685Z,96387.44
2023-01-11T21:35:01.198Z,96399.94
2023-01-11T21:37:27.670Z,96409.06
2023-01-11T21:39:54.108Z,96417.06
2023-01-11T21:42:20.589Z,96417.34
2023-01-11T21:44:47.087Z,96414.03
2023-01-11T21:47:13.576Z,96410.16
2023-01-11T21:49:41.118Z,96396.47
2023-01-11T21:52:07.605Z,96397.16
2023-01-11T21:54:34.230Z,96403.91
2023-01-11T21:57:00.737Z,96396.03
2023-01-11T21:59:27.255Z,96415.69
2023-01-11T22:01:53.767Z,96412.38
2023-01-11T22:04:21.180Z,96424.28
2023-01-11T22:06:49.004Z,96414.25
2023-01-11T22:09:15.507Z,96422.44
2023-01-11T22:11:41.994Z,96411.34
2023-01-11T22:14:08.896Z,96406.56
2023-01-11T22:16:37.073Z,96409.47
2023-01-11T22:19:05.309Z,96406.81
2023-01-11T22:21:31.781Z,96401.81
2023-01-11T22:23:59.583Z,96406.81
2023-01-11T22:26:27.630Z,96410.66
2023-01-11T22:28:55.700Z,96421.47
2023-01-11T22:31:22.784Z,96412.88
2023-01-11T22:33:49.305Z,96412.59
2023-01-11T22:36:16.000Z,96402.63
2023-01-11T22:38:42.543Z,96391.19
2023-01-11T22:41:09.733Z,96394.06
2023-01-11T22:43:36.531Z,96401.78
2023-01-11T22:46:03.056Z,96406.81
2023-01-11T22:48:29.755Z,96413.19
2023-01-11T22:50:56.222Z,96417.59
2023-01-11T22:53:22.707Z,96424.25
2023-01-11T22:55:49.419Z,96434.19
2023-01-11T22:58:15.877Z,96433.09
2023-01-11T23:00:42.331Z,96428.81
2023-01-11T23:03:09.024Z,96423.97
2023-01-11T23:05:35.560Z,96427.16
2023-01-11T23:08:02.147Z,96420.66
2023-01-11T23:10:28.638Z,96436.81
2023-01-11T23:12:55.102Z,96438.84
2023-01-11T23:15:21.554Z,96432.94
2023-01-11T23:17:48.045Z,96438.09
2023-01-11T23:20:14.509Z,96441.63
2023-01-11T23:22:40.991Z,96447.66
2023-01-11T23:25:07.936Z,96454.72
2023-01-11T23:27:34.398Z,96451.22
2023-01-11T23:30:00.878Z,96449.53
2023-01-11T23:32:27.359Z,96445.69
2023-01-11T23:34:53.809Z,96460.31
2023-01-11T23:37:20.606Z,96452.16
2023-01-11T23:39:47.065Z,96438.00
2023-01-11T23:42:13.538Z,96429.16
2023-01-11T23:44:40.004Z,96417.84
2023-01-11T23:47:06.495Z,96421.22
2023-01-11T23:49:33.232Z,96418.75
2023-01-11T23:52:00.125Z,96413.16
2023-01-11T23:54:32.328Z,96415.22
2023-01-11T23:57:00.944Z,96401.25
2023-01-11T23:59:27.762Z,96414.81
